Time;durP1;ratioP1;P1;durP2;ratioP2;P2;SDS_P1;SDS_P2;PMS_P1;PMS_P2;Temp;Humidity;BMP_temperature;BMP_pressure;BME280_temperature;BME280_humidity;BME280_pressure;Samples;Min_cycle;Max_cycle;Signal;HPM_P1;HPM_P2
2021/12/06 00:01:41;;;;;;;55.60;28.47;;;2.10;99.90;;;;;;5080670;28;20183;-92
2021/12/06 00:04:15;;;;;;;54.83;27.00;;;2.20;99.90;;;;;;5019685;28;20189;-92
2021/12/06 00:06:45;;;;;;;55.53;27.83;;;2.20;99.90;;;;;;5070809;28;20184;-92
2021/12/06 00:09:16;;;;;;;55.97;28.30;;;2.20;99.90;;;;;;5080289;28;20539;-91
2021/12/06 00:11:42;;;;;;;52.93;27.13;;;2.20;99.90;;;;;;5080413;28;20543;-92
2021/12/06 00:14:09;;;;;;;56.23;27.27;;;2.20;99.90;;;;;;5080186;28;20518;-92
2021/12/06 00:16:36;;;;;;;56.93;28.30;;;2.20;99.90;;;;;;5080267;28;20226;-91
2021/12/06 00:19:07;;;;;;;58.60;27.93;;;2.20;99.90;;;;;;5080218;28;20183;-92
2021/12/06 00:21:34;;;;;;;49.83;26.07;;;2.10;99.90;;;;;;5080023;28;20271;-92
2021/12/06 00:24:00;;;;;;;58.53;27.23;;;2.20;99.90;;;;;;5079977;28;20184;-93
2021/12/06 00:26:26;;;;;;;52.60;25.77;;;2.10;99.90;;;;;;5080173;28;20180;-92
2021/12/06 00:28:57;;;;;;;48.30;25.03;;;2.20;99.90;;;;;;5080059;28;20177;-92
2021/12/06 00:31:25;;;;;;;50.67;26.57;;;2.10;99.90;;;;;;5079977;28;20208;-93
2021/12/06 00:33:59;;;;;;;51.03;24.37;;;2.10;99.90;;;;;;5080131;28;20322;-91
2021/12/06 00:36:28;;;;;;;51.43;25.10;;;2.10;99.90;;;;;;5082975;28;20227;-92
2021/12/06 00:38:57;;;;;;;45.73;24.50;;;2.10;99.90;;;;;;5118455;28;20199;-91
2021/12/06 00:41:23;;;;;;;48.77;24.77;;;2.10;99.90;;;;;;5099624;28;20606;-92
2021/12/06 00:43:49;;;;;;;46.23;24.13;;;2.10;99.90;;;;;;5118337;28;20172;-91
2021/12/06 00:46:15;;;;;;;50.40;25.20;;;2.10;99.90;;;;;;5100406;28;20179;-92
2021/12/06 00:48:40;;;;;;;45.57;23.97;;;2.20;99.90;;;;;;5098613;28;20568;-92
2021/12/06 00:51:06;;;;;;;49.90;25.60;;;2.10;99.90;;;;;;5099847;28;20207;-92
2021/12/06 00:53:32;;;;;;;49.40;25.13;;;2.20;99.90;;;;;;5099847;28;20229;-92
2021/12/06 00:55:58;;;;;;;47.73;23.80;;;2.20;99.90;;;;;;5099971;28;20185;-91
2021/12/06 00:58:25;;;;;;;47.37;25.20;;;2.20;99.90;;;;;;5099749;28;20188;-91
2021/12/06 01:00:54;;;;;;;48.27;25.57;;;2.20;99.90;;;;;;5099850;28;20558;-91
2021/12/06 01:03:24;;;;;;;46.67;24.33;;;2.20;99.90;;;;;;5099616;28;20172;-92
2021/12/06 01:05:49;;;;;;;45.23;23.63;;;2.10;99.90;;;;;;5099631;28;20180;-92
2021/12/06 01:08:18;;;;;;;48.73;24.33;;;2.20;99.90;;;;;;5099638;28;20176;-92
2021/12/06 01:10:44;;;;;;;47.87;25.13;;;2.20;99.90;;;;;;5099540;28;20180;-90
2021/12/06 01:13:10;;;;;;;42.37;23.63;;;2.20;99.90;;;;;;5099443;28;20180;-91
2021/12/06 01:15:37;;;;;;;45.73;24.43;;;2.20;99.90;;;;;;5099826;28;20263;-92
2021/12/06 01:18:06;;;;;;;46.47;23.73;;;2.20;99.90;;;;;;5100138;28;20194;-93
2021/12/06 01:20:39;;;;;;;40.53;22.80;;;2.30;99.90;;;;;;5099382;28;20164;-91
2021/12/06 01:23:08;;;;;;;44.30;22.87;;;2.20;99.90;;;;;;5099712;28;20171;-92
2021/12/06 01:25:46;;;;;;;41.57;21.97;;;2.20;99.90;;;;;;5099542;28;20171;-94
2021/12/06 01:41:36;;;;;;;48.10;24.67;;;2.10;99.90;;;;;;5117441;28;20255;-95
2021/12/06 01:44:07;;;;;;;49.40;22.27;;;2.10;99.90;;;;;;5098957;28;20212;-95
2021/12/06 01:46:34;;;;;;;52.13;24.10;;;2.00;99.90;;;;;;5098937;28;20184;-94
2021/12/06 01:49:07;;;;;;;52.87;25.03;;;2.00;99.90;;;;;;5098838;28;20200;-94
2021/12/06 01:51:34;;;;;;;56.47;24.17;;;2.00;99.90;;;;;;5097738;28;20218;-93
2021/12/06 01:54:01;;;;;;;57.03;25.53;;;2.10;99.90;;;;;;5098588;28;20175;-95
2021/12/06 01:56:26;;;;;;;52.90;24.17;;;2.10;99.90;;;;;;5116837;28;20207;-92
2021/12/06 01:58:54;;;;;;;56.67;24.97;;;2.10;99.90;;;;;;5098453;28;20205;-92
2021/12/06 02:01:21;;;;;;;56.50;25.23;;;2.00;99.90;;;;;;5098574;28;20182;-92
2021/12/06 02:03:46;;;;;;;52.60;23.93;;;2.10;99.90;;;;;;5098416;28;20630;-91
2021/12/06 02:06:12;;;;;;;51.70;24.53;;;2.10;99.90;;;;;;5098391;28;20172;-92
2021/12/06 02:08:39;;;;;;;51.87;24.43;;;2.10;99.90;;;;;;5098436;28;20180;-92
2021/12/06 02:11:06;;;;;;;47.67;22.77;;;2.20;99.90;;;;;;5098323;28;20203;-92
2021/12/06 02:13:47;;;;;;;54.40;24.07;;;2.10;99.90;;;;;;5098367;28;20198;-92
2021/12/06 02:16:14;;;;;;;55.00;24.17;;;2.10;99.90;;;;;;5098400;28;20160;-91
2021/12/06 02:18:47;;;;;;;58.80;25.07;;;2.10;99.90;;;;;;5116401;28;20179;-92
2021/12/06 02:21:25;;;;;;;47.57;22.47;;;2.10;99.90;;;;;;5098061;28;20201;-93
2021/12/06 02:23:50;;;;;;;51.00;22.00;;;2.20;99.90;;;;;;5098087;28;20256;-91
2021/12/06 02:26:17;;;;;;;48.87;22.30;;;2.10;99.90;;;;;;5098152;28;20213;-92
2021/12/06 02:28:52;;;;;;;51.90;22.43;;;2.20;99.90;;;;;;5098029;28;20574;-92
2021/12/06 02:31:20;;;;;;;49.87;22.13;;;2.20;99.90;;;;;;5098412;28;20296;-92
2021/12/06 02:33:48;;;;;;;59.10;25.27;;;2.20;99.90;;;;;;5097857;28;20190;-92
2021/12/06 02:36:19;;;;;;;54.33;24.77;;;2.20;99.90;;;;;;5097618;28;20238;-92
2021/12/06 02:38:45;;;;;;;54.27;23.60;;;2.10;99.90;;;;;;5097927;28;20171;-91
2021/12/06 02:41:13;;;;;;;62.10;25.87;;;2.10;99.90;;;;;;5098080;28;20204;-92
2021/12/06 02:43:40;;;;;;;56.70;24.67;;;2.10;99.90;;;;;;5098037;28;20179;-92
2021/12/06 02:46:07;;;;;;;58.67;24.50;;;2.10;99.90;;;;;;5097771;28;20170;-92
2021/12/06 02:48:36;;;;;;;57.70;24.73;;;2.00;99.90;;;;;;5097707;28;20203;-92
2021/12/06 02:51:05;;;;;;;55.50;23.23;;;2.00;99.90;;;;;;5097728;28;20513;-92
2021/12/06 02:53:33;;;;;;;53.77;22.67;;;2.00;99.90;;;;;;5097584;28;20176;-91
2021/12/06 02:56:04;;;;;;;49.13;22.93;;;2.00;99.90;;;;;;5097623;28;20679;-91
2021/12/06 03:01:14;;;;;;;45.03;21.57;;;2.00;99.90;;;;;;5116240;28;20163;-91
2021/12/06 03:03:40;;;;;;;41.97;21.47;;;2.00;99.90;;;;;;5097404;28;20529;-92
2021/12/06 03:06:07;;;;;;;46.40;22.60;;;2.00;99.90;;;;;;5097969;28;20178;-92
2021/12/06 03:08:46;;;;;;;43.47;22.00;;;1.90;99.90;;;;;;5097532;28;20172;-93
2021/12/06 03:11:20;;;;;;;39.53;21.57;;;2.00;99.90;;;;;;5097820;28;20233;-92
2021/12/06 03:13:46;;;;;;;38.37;21.17;;;1.90;99.90;;;;;;5097960;28;20240;-92
2021/12/06 03:16:12;;;;;;;37.50;21.27;;;1.90;99.90;;;;;;5097779;28;20180;-92
2021/12/06 03:18:43;;;;;;;35.77;21.40;;;1.90;99.90;;;;;;5097614;28;20225;-93
2021/12/06 03:21:10;;;;;;;37.93;21.23;;;1.80;99.90;;;;;;5097633;28;20221;-93
2021/12/06 03:23:35;;;;;;;34.97;20.47;;;1.80;99.90;;;;;;5097572;28;20233;-92
2021/12/06 03:26:02;;;;;;;35.53;20.13;;;1.70;99.90;;;;;;5097419;28;20604;-93
2021/12/06 03:28:27;;;;;;;35.13;21.37;;;1.80;99.90;;;;;;5097377;28;20272;-93
2021/12/06 03:30:55;;;;;;;37.27;21.13;;;1.70;99.90;;;;;;5097433;28;20290;-92
2021/12/06 03:33:21;;;;;;;38.27;21.40;;;1.60;99.90;;;;;;5097414;28;20175;-91
2021/12/06 03:35:47;;;;;;;40.63;21.43;;;1.60;99.90;;;;;;5097555;28;20644;-94
2021/12/06 03:38:12;;;;;;;36.97;20.50;;;1.60;99.90;;;;;;5097014;28;20670;-92
2021/12/06 03:40:39;;;;;;;40.87;22.53;;;1.60;99.90;;;;;;5097356;28;20176;-92
2021/12/06 03:43:05;;;;;;;36.63;21.53;;;1.60;99.90;;;;;;5097467;28;20175;-92
2021/12/06 03:45:35;;;;;;;39.23;22.90;;;1.60;99.90;;;;;;5097316;28;20331;-92
2021/12/06 03:48:01;;;;;;;39.00;22.57;;;1.60;99.90;;;;;;5097228;28;20182;-93
2021/12/06 03:50:38;;;;;;;40.87;23.40;;;1.60;99.90;;;;;;5097242;28;20180;-92
2021/12/06 03:53:03;;;;;;;41.17;22.17;;;1.60;99.90;;;;;;5097044;28;20195;-92
2021/12/06 03:55:29;;;;;;;40.53;23.90;;;1.60;99.90;;;;;;5097142;28;20176;-93
2021/12/06 03:57:55;;;;;;;39.40;23.37;;;1.50;99.90;;;;;;5096996;28;20178;-92
2021/12/06 04:00:27;;;;;;;42.50;23.20;;;1.50;99.90;;;;;;5097052;28;20172;-92
2021/12/06 04:02:53;;;;;;;39.77;22.53;;;1.50;99.90;;;;;;5097432;28;20180;-92
2021/12/06 04:05:19;;;;;;;40.57;23.07;;;1.50;99.90;;;;;;5096925;28;20191;-92
2021/12/06 04:07:45;;;;;;;39.00;22.43;;;1.50;99.90;;;;;;5096924;28;20275;-91
2021/12/06 04:10:15;;;;;;;39.83;23.60;;;1.60;99.90;;;;;;5096950;28;20218;-92
2021/12/06 04:12:41;;;;;;;37.97;22.77;;;1.60;99.90;;;;;;5096935;28;20530;-93
2021/12/06 04:15:09;;;;;;;38.93;22.87;;;1.60;99.90;;;;;;5097942;28;20512;-92
2021/12/06 04:17:36;;;;;;;41.70;23.97;;;1.60;99.90;;;;;;5100577;28;20184;-91
2021/12/06 04:20:08;;;;;;;41.07;23.47;;;1.60;99.90;;;;;;5100246;28;20182;-93
2021/12/06 04:22:34;;;;;;;42.73;24.23;;;1.60;99.90;;;;;;5100487;28;20187;-92
2021/12/06 04:25:02;;;;;;;42.03;23.13;;;1.60;99.90;;;;;;5100357;28;20209;-92
2021/12/06 04:27:29;;;;;;;41.40;23.47;;;1.60;99.90;;;;;;5100437;28;20252;-92
2021/12/06 04:30:08;;;;;;;44.33;24.10;;;1.60;99.90;;;;;;5100391;28;20682;-92
2021/12/06 04:32:34;;;;;;;40.73;23.10;;;1.60;99.90;;;;;;5100442;28;20234;-92
2021/12/06 04:35:01;;;;;;;37.73;22.30;;;1.60;99.90;;;;;;5100294;28;20180;-93
2021/12/06 04:37:26;;;;;;;39.80;23.97;;;1.60;99.90;;;;;;5117719;28;20231;-92
2021/12/06 04:40:01;;;;;;;40.43;23.03;;;1.70;99.90;;;;;;5100396;28;20263;-92
2021/12/06 04:42:27;;;;;;;40.83;23.23;;;1.70;99.90;;;;;;5100156;28;20205;-92
2021/12/06 04:44:52;;;;;;;41.70;22.67;;;1.70;99.90;;;;;;5100093;28;20207;-93
2021/12/06 04:47:18;;;;;;;39.63;23.57;;;1.70;99.90;;;;;;5099967;28;20172;-92
2021/12/06 04:49:46;;;;;;;42.33;24.50;;;1.70;99.90;;;;;;5100228;28;20179;-93
2021/12/06 04:52:13;;;;;;;44.67;24.53;;;1.70;99.90;;;;;;5099727;28;20211;-93
2021/12/06 04:54:44;;;;;;;44.43;24.67;;;1.60;99.90;;;;;;5099714;28;20179;-93
2021/12/06 04:57:21;;;;;;;43.07;24.00;;;1.60;99.90;;;;;;5099796;28;20203;-92
2021/12/06 05:00:01;;;;;;;45.43;24.63;;;1.60;99.90;;;;;;5099822;28;20905;-93
2021/12/06 05:02:33;;;;;;;44.03;24.40;;;1.60;99.90;;;;;;5099891;28;20678;-91
2021/12/06 05:05:05;;;;;;;44.27;24.17;;;1.60;99.90;;;;;;5099675;28;20181;-90
2021/12/06 05:07:39;;;;;;;44.90;25.23;;;1.70;99.90;;;;;;5099379;28;20177;-90
2021/12/06 05:10:09;;;;;;;46.63;24.47;;;1.70;99.90;;;;;;5099534;28;20197;-90
2021/12/06 05:12:35;;;;;;;49.33;26.50;;;1.70;99.90;;;;;;5099698;28;20199;-89
2021/12/06 05:15:01;;;;;;;47.13;24.70;;;1.60;99.90;;;;;;5099433;28;20176;-90
2021/12/06 05:17:28;;;;;;;51.47;25.43;;;1.70;99.90;;;;;;5099476;28;20530;-89
2021/12/06 05:20:05;;;;;;;49.27;24.83;;;1.60;99.90;;;;;;5100028;28;20183;-90
2021/12/06 05:22:31;;;;;;;47.07;24.13;;;1.70;99.90;;;;;;5099219;28;20171;-90
2021/12/06 05:24:58;;;;;;;43.80;24.27;;;1.70;99.90;;;;;;5099135;28;20186;-92
2021/12/06 05:27:28;;;;;;;44.73;24.83;;;1.60;99.90;;;;;;5098991;28;20517;-90
2021/12/06 05:30:23;;;;;;;44.17;24.40;;;1.70;99.90;;;;;;5099531;28;20172;-93
2021/12/06 05:32:49;;;;;;;46.13;24.90;;;1.70;99.90;;;;;;5099328;28;20537;-90
2021/12/06 05:35:15;;;;;;;45.77;24.80;;;1.70;99.90;;;;;;5099185;28;20210;-89
2021/12/06 05:37:48;;;;;;;41.03;23.83;;;1.70;99.90;;;;;;5098512;28;20291;-92
2021/12/06 05:40:19;;;;;;;44.40;24.93;;;1.70;99.90;;;;;;5099045;28;20168;-92
2021/12/06 05:42:46;;;;;;;48.53;24.47;;;1.70;99.90;;;;;;5099520;28;20176;-93
2021/12/06 05:45:14;;;;;;;40.10;23.37;;;1.70;99.90;;;;;;5098801;28;20194;-91
2021/12/06 05:47:40;;;;;;;42.20;23.90;;;1.70;99.90;;;;;;5098747;28;20175;-90
2021/12/06 05:50:09;;;;;;;47.53;24.30;;;1.70;99.90;;;;;;5098916;28;20186;-91
2021/12/06 05:52:35;;;;;;;48.77;24.80;;;1.70;99.90;;;;;;5098534;28;20214;-90
2021/12/06 05:55:01;;;;;;;44.97;24.57;;;1.70;99.90;;;;;;5098775;28;20241;-91
2021/12/06 05:57:27;;;;;;;45.77;24.73;;;1.70;99.90;;;;;;5098579;28;20179;-89
2021/12/06 05:59:52;;;;;;;45.70;24.43;;;1.70;99.90;;;;;;5098522;28;20176;-90
2021/12/06 06:02:18;;;;;;;44.40;24.03;;;1.70;99.90;;;;;;5098669;28;20266;-90
2021/12/06 06:04:44;;;;;;;44.13;23.30;;;1.70;99.90;;;;;;5098945;28;20552;-92
2021/12/06 06:07:10;;;;;;;46.40;23.80;;;1.70;99.90;;;;;;5098348;28;20187;-94
2021/12/06 06:09:36;;;;;;;43.73;24.57;;;1.70;99.90;;;;;;5098357;28;20184;-90
2021/12/06 06:12:05;;;;;;;43.20;23.50;;;1.70;99.90;;;;;;5098470;28;20245;-90
2021/12/06 06:14:32;;;;;;;41.00;23.07;;;1.70;99.90;;;;;;5098443;28;20256;-89
2021/12/06 06:17:08;;;;;;;44.93;24.77;;;1.70;99.90;;;;;;5098470;28;20196;-90
2021/12/06 06:19:35;;;;;;;41.80;24.53;;;1.70;99.90;;;;;;5099094;27;20171;-92
2021/12/06 06:22:09;;;;;;;49.87;24.43;;;1.60;99.90;;;;;;5097173;28;20186;-90
2021/12/06 06:24:35;;;;;;;39.50;23.97;;;1.70;99.90;;;;;;5097752;28;20490;-90
2021/12/06 06:27:01;;;;;;;43.87;24.43;;;1.70;99.90;;;;;;5097743;28;20202;-92
2021/12/06 06:29:27;;;;;;;40.03;23.47;;;1.70;99.90;;;;;;5098113;28;20602;-90
2021/12/06 06:32:00;;;;;;;41.90;23.97;;;1.60;99.90;;;;;;5098111;28;20243;-90
2021/12/06 06:34:25;;;;;;;43.40;23.17;;;1.60;99.90;;;;;;5097997;28;20174;-91
2021/12/06 06:36:51;;;;;;;43.10;22.93;;;1.70;99.90;;;;;;5094420;28;20228;-90
2021/12/06 06:39:19;;;;;;;42.17;23.37;;;1.70;99.90;;;;;;5094013;28;20183;-90
2021/12/06 06:41:51;;;;;;;44.17;23.40;;;1.70;99.90;;;;;;5094860;28;20196;-90
2021/12/06 06:44:17;;;;;;;46.57;24.33;;;1.70;99.90;;;;;;5094442;28;20176;-89
2021/12/06 06:46:45;;;;;;;43.10;23.07;;;1.70;99.90;;;;;;5091675;28;20184;-89
2021/12/06 06:49:12;;;;;;;43.50;22.40;;;1.70;99.90;;;;;;5077724;28;20309;-90
2021/12/06 06:51:38;;;;;;;44.70;26.63;;;1.70;99.90;;;;;;5077250;28;20212;-90
2021/12/06 06:54:04;;;;;;;47.40;26.87;;;1.70;99.90;;;;;;5077603;28;20607;-90
2021/12/06 06:56:30;;;;;;;44.90;23.87;;;1.70;99.90;;;;;;5083030;28;20230;-88
2021/12/06 06:58:56;;;;;;;44.17;23.87;;;1.70;99.90;;;;;;5094294;28;20180;-90
2021/12/06 07:01:24;;;;;;;43.47;24.13;;;1.70;99.90;;;;;;5095364;28;20204;-90
2021/12/06 07:03:53;;;;;;;41.27;22.30;;;1.70;99.90;;;;;;5095411;28;20169;-90
2021/12/06 07:06:20;;;;;;;34.47;21.43;;;1.70;99.90;;;;;;5094338;28;20179;-91
2021/12/06 07:08:46;;;;;;;37.60;21.17;;;1.70;99.90;;;;;;5094031;28;20183;-92
2021/12/06 07:11:13;;;;;;;37.73;21.47;;;1.70;99.90;;;;;;5094442;28;20208;-91
2021/12/06 07:13:39;;;;;;;37.37;20.30;;;1.70;99.90;;;;;;5094302;28;20276;-92
2021/12/06 07:16:07;;;;;;;34.47;19.87;;;1.70;99.90;;;;;;5094671;28;20178;-91
2021/12/06 07:18:33;;;;;;;32.83;18.40;;;1.60;99.90;;;;;;5094157;28;20175;-91
2021/12/06 07:20:59;;;;;;;31.30;17.60;;;1.60;99.90;;;;;;5094082;28;20184;-93
2021/12/06 07:23:25;;;;;;;27.97;16.87;;;1.60;99.90;;;;;;5093796;28;20191;-89
2021/12/06 07:25:51;;;;;;;28.33;16.67;;;1.60;99.90;;;;;;5093974;28;20188;-89
2021/12/06 07:28:17;;;;;;;25.73;15.37;;;1.60;99.90;;;;;;5094095;28;20183;-89
2021/12/06 07:30:43;;;;;;;26.60;16.93;;;1.60;99.90;;;;;;5093890;28;20173;-90
2021/12/06 07:33:28;;;;;;;27.50;15.80;;;1.60;99.90;;;;;;5094120;28;20607;-91
2021/12/06 07:35:54;;;;;;;27.17;16.30;;;1.60;99.90;;;;;;5094357;28;20618;-91
2021/12/06 07:38:19;;;;;;;27.20;16.50;;;1.60;99.90;;;;;;5097251;28;20258;-92
2021/12/06 07:40:45;;;;;;;26.33;16.67;;;1.60;99.90;;;;;;5097489;28;20551;-92
2021/12/06 07:43:15;;;;;;;24.63;16.13;;;1.50;99.90;;;;;;5097268;28;20288;-92
2021/12/06 07:45:41;;;;;;;24.50;15.43;;;1.50;99.90;;;;;;5097561;28;20168;-93
2021/12/06 07:48:07;;;;;;;24.30;15.90;;;1.50;99.90;;;;;;5097582;28;20176;-92
2021/12/06 07:50:33;;;;;;;23.33;14.83;;;1.50;99.90;;;;;;5099603;28;20210;-91
2021/12/06 07:52:59;;;;;;;23.23;14.90;;;1.50;99.90;;;;;;5101199;28;20210;-95
2021/12/06 07:55:27;;;;;;;26.37;15.47;;;1.50;99.90;;;;;;5101424;28;20189;-94
2021/12/06 07:57:56;;;;;;;25.93;15.07;;;1.50;99.90;;;;;;5100371;27;20562;-93
2021/12/06 08:00:24;;;;;;;24.90;14.43;;;1.50;99.90;;;;;;5101415;28;20243;-93
2021/12/06 08:03:00;;;;;;;21.00;14.37;;;1.40;99.90;;;;;;5100570;28;20187;-92
2021/12/06 08:05:30;;;;;;;22.57;14.63;;;1.50;99.90;;;;;;5100786;28;20191;-92
2021/12/06 08:08:16;;;;;;;22.20;13.43;;;1.50;99.90;;;;;;5100772;28;20206;-92
2021/12/06 08:10:46;;;;;;;25.63;15.40;;;1.50;99.90;;;;;;5093842;28;20508;-91
2021/12/06 08:13:24;;;;;;;23.87;13.83;;;1.50;99.90;;;;;;5100170;28;20192;-93
2021/12/06 08:15:53;;;;;;;22.20;13.63;;;1.60;99.90;;;;;;5100908;28;20618;-92
2021/12/06 08:18:20;;;;;;;24.37;14.57;;;1.60;99.90;;;;;;5100915;28;20270;-93
2021/12/06 08:20:46;;;;;;;21.53;13.17;;;1.60;99.90;;;;;;5100319;28;20187;-93
2021/12/06 08:23:13;;;;;;;20.73;13.77;;;1.60;99.90;;;;;;5101204;28;20175;-93
2021/12/06 08:25:42;;;;;;;21.33;13.67;;;1.60;99.90;;;;;;5100830;28;20180;-94
2021/12/06 08:28:08;;;;;;;20.10;12.90;;;1.60;99.90;;;;;;5100820;28;20205;-94
2021/12/06 08:30:34;;;;;;;22.17;13.83;;;1.50;99.90;;;;;;5101362;28;20188;-94
2021/12/06 08:33:04;;;;;;;21.60;14.37;;;1.50;99.90;;;;;;5100434;28;20218;-94
2021/12/06 08:35:31;;;;;;;20.37;14.10;;;1.60;99.90;;;;;;5100512;28;20191;-95
2021/12/06 08:37:58;;;;;;;22.37;13.67;;;1.50;99.90;;;;;;5096865;28;20670;-95
2021/12/06 08:40:25;;;;;;;22.67;14.30;;;1.50;99.90;;;;;;5097123;28;20181;-93
2021/12/06 08:42:59;;;;;;;21.47;14.33;;;1.60;99.90;;;;;;5097377;28;20181;-94
2021/12/06 08:45:26;;;;;;;23.17;13.80;;;1.60;99.90;;;;;;5096853;28;20189;-93
2021/12/06 08:47:53;;;;;;;23.03;13.90;;;1.50;99.90;;;;;;5088394;28;20658;-94
2021/12/06 08:50:22;;;;;;;22.13;13.70;;;1.50;99.90;;;;;;5099524;28;20631;-96
2021/12/06 08:52:57;;;;;;;22.83;13.93;;;1.50;99.90;;;;;;5099539;28;20231;-94
2021/12/06 08:55:24;;;;;;;22.20;13.63;;;1.50;99.90;;;;;;5104092;28;20179;-94
2021/12/06 08:57:50;;;;;;;21.90;14.13;;;1.40;99.90;;;;;;5098168;28;20656;-93
2021/12/06 09:00:24;;;;;;;22.73;13.53;;;1.40;99.90;;;;;;5096413;28;20368;-92
2021/12/06 09:02:51;;;;;;;21.83;13.57;;;1.40;99.90;;;;;;5096315;28;20173;-95
2021/12/06 09:05:19;;;;;;;22.17;13.93;;;1.40;99.90;;;;;;5099420;28;20207;-96
2021/12/06 09:07:44;;;;;;;22.83;13.73;;;1.40;99.90;;;;;;5096053;28;20178;-95
2021/12/06 09:10:12;;;;;;;20.90;13.63;;;1.40;99.90;;;;;;5095900;28;20230;-95
2021/12/06 09:12:40;;;;;;;22.53;14.10;;;1.40;99.90;;;;;;5097372;28;20305;-95
2021/12/06 09:15:10;;;;;;;23.77;14.10;;;1.40;99.90;;;;;;5096321;28;20183;-95
2021/12/06 09:17:36;;;;;;;24.97;13.83;;;1.40;99.90;;;;;;5081464;28;20503;-96
2021/12/06 09:20:04;;;;;;;20.60;13.60;;;1.40;99.90;;;;;;5059222;28;20612;-95
2021/12/06 09:22:30;;;;;;;22.43;14.03;;;1.40;99.90;;;;;;5058885;28;20195;-94
2021/12/06 09:24:57;;;;;;;21.97;14.20;;;1.40;99.90;;;;;;5061959;28;20172;-95
2021/12/06 09:27:23;;;;;;;21.20;13.67;;;1.40;99.90;;;;;;5059464;28;20203;-93
2021/12/06 09:29:49;;;;;;;23.13;13.77;;;1.40;99.90;;;;;;5059025;28;20181;-92
2021/12/06 09:32:19;;;;;;;19.57;12.97;;;1.40;99.90;;;;;;5059228;28;20228;-96
2021/12/06 09:34:57;;;;;;;21.83;13.30;;;1.40;99.90;;;;;;5059434;28;20182;-96
2021/12/06 09:37:24;;;;;;;21.60;13.57;;;1.40;99.90;;;;;;5060551;28;20239;-96
2021/12/06 09:39:50;;;;;;;20.63;13.57;;;1.40;99.90;;;;;;5060275;28;20174;-96
2021/12/06 09:42:18;;;;;;;19.97;13.20;;;1.40;99.90;;;;;;5059658;28;20631;-96
2021/12/06 09:45:06;;;;;;;22.70;14.40;;;1.40;99.90;;;;;;5063921;28;20190;-96
2021/12/06 09:47:32;;;;;;;24.10;13.70;;;1.30;99.90;;;;;;5079609;28;20180;-96
2021/12/06 09:49:58;;;;;;;24.33;13.93;;;1.40;99.90;;;;;;5080003;28;20210;-96
2021/12/06 09:52:25;;;;;;;22.87;15.00;;;1.40;99.90;;;;;;5079223;28;20201;-96
2021/12/06 09:54:59;;;;;;;23.73;14.70;;;1.40;99.90;;;;;;5079975;28;20268;-96
2021/12/06 09:57:25;;;;;;;22.27;14.60;;;1.40;99.90;;;;;;5079424;28;20267;-95
2021/12/06 09:59:51;;;;;;;21.20;14.53;;;1.30;99.90;;;;;;5078953;28;20209;-96
2021/12/06 10:02:20;;;;;;;23.50;14.57;;;1.30;99.90;;;;;;5078470;28;20600;-92
2021/12/06 10:04:53;;;;;;;20.33;13.77;;;1.30;99.90;;;;;;5078326;28;20187;-93
2021/12/06 10:07:21;;;;;;;21.33;14.30;;;1.40;99.90;;;;;;5096277;28;20265;-94
2021/12/06 10:09:52;;;;;;;21.57;13.70;;;1.50;99.90;;;;;;5078096;28;20185;-93
2021/12/06 10:12:21;;;;;;;20.70;13.03;;;1.50;99.90;;;;;;5077936;28;20235;-95
2021/12/06 10:14:50;;;;;;;20.60;12.63;;;1.50;99.90;;;;;;5081187;28;20191;-94
2021/12/06 10:17:19;;;;;;;19.37;12.10;;;1.60;99.90;;;;;;5085054;28;20173;-96
2021/12/06 10:19:46;;;;;;;20.33;12.30;;;1.60;99.90;;;;;;5078668;28;20176;-95
2021/12/06 10:22:15;;;;;;;19.10;12.57;;;1.60;99.90;;;;;;5078308;28;20179;-93
2021/12/06 10:24:53;;;;;;;24.50;14.17;;;1.70;99.90;;;;;;5078055;28;20619;-93
2021/12/06 10:27:19;;;;;;;25.30;16.73;;;1.70;99.90;;;;;;5078334;28;20195;-93
2021/12/06 10:30:03;;;;;;;24.27;15.80;;;1.80;99.90;;;;;;5078254;28;20184;-93
2021/12/06 10:32:36;;;;;;;25.40;14.80;;;1.80;99.90;;;;;;5078483;28;20355;-94
2021/12/06 10:35:20;;;;;;;21.03;13.07;;;1.90;99.90;;;;;;5081722;28;20181;-92
2021/12/06 10:37:53;;;;;;;17.43;11.63;;;1.90;99.90;;;;;;5089739;28;20254;-93
2021/12/06 10:40:35;;;;;;;19.27;12.60;;;2.00;99.90;;;;;;5094776;28;20178;-93
2021/12/06 10:43:04;;;;;;;18.07;11.67;;;1.90;99.90;;;;;;5094184;28;20180;-94
2021/12/06 10:45:42;;;;;;;17.10;11.90;;;2.00;99.90;;;;;;5094064;28;20192;-93
2021/12/06 10:48:18;;;;;;;18.10;11.70;;;2.00;99.90;;;;;;5094568;28;20183;-93
2021/12/06 10:50:55;;;;;;;16.97;11.63;;;1.90;99.90;;;;;;5094498;28;20633;-92
2021/12/06 10:53:24;;;;;;;16.90;11.00;;;1.90;99.90;;;;;;5094335;28;20251;-92
2021/12/06 10:55:57;;;;;;;18.10;11.70;;;1.80;99.90;;;;;;5094619;28;20205;-92
2021/12/06 10:58:26;;;;;;;18.17;11.90;;;1.80;99.90;;;;;;5094590;28;20185;-94
2021/12/06 11:00:57;;;;;;;18.37;11.63;;;1.80;99.90;;;;;;5094762;28;20606;-94
2021/12/06 11:03:30;;;;;;;19.77;12.27;;;1.80;99.90;;;;;;5098076;28;20217;-95
2021/12/06 11:06:18;;;;;;;20.97;12.00;;;1.70;99.90;;;;;;5098205;28;20570;-94
2021/12/06 11:08:47;;;;;;;19.37;12.57;;;1.70;99.90;;;;;;5094161;28;20416;-95
2021/12/06 11:11:17;;;;;;;18.43;12.20;;;1.60;99.90;;;;;;5094603;28;20226;-93
2021/12/06 11:13:52;;;;;;;18.47;12.10;;;1.60;99.90;;;;;;5095987;28;20180;-96
2021/12/06 11:16:37;;;;;;;16.70;11.57;;;1.60;99.90;;;;;;5098991;28;20183;-94
2021/12/06 11:19:18;;;;;;;20.47;12.10;;;1.60;99.90;;;;;;5096445;28;20172;-94
2021/12/06 11:21:54;;;;;;;17.63;12.03;;;1.60;99.90;;;;;;5094126;28;20169;-94
2021/12/06 11:24:29;;;;;;;20.30;13.13;;;1.60;99.90;;;;;;5095589;28;20168;-94
2021/12/06 11:27:08;;;;;;;16.37;11.80;;;1.60;99.90;;;;;;5094046;28;20178;-96
2021/12/06 11:29:44;;;;;;;15.60;10.67;;;1.70;99.90;;;;;;5101978;28;20513;-95
2021/12/06 11:32:26;;;;;;;15.13;11.00;;;1.70;99.90;;;;;;5103988;28;20210;-95
2021/12/06 11:35:04;;;;;;;17.70;11.87;;;1.70;99.90;;;;;;5073052;28;20181;-95
2021/12/06 11:37:44;;;;;;;17.87;10.93;;;1.60;99.90;;;;;;5118929;28;20221;-95
2021/12/06 11:40:23;;;;;;;17.33;10.53;;;1.60;99.90;;;;;;5088092;28;20182;-94
2021/12/06 11:42:56;;;;;;;16.00;10.40;;;1.60;99.90;;;;;;5100161;28;20182;-95
2021/12/06 11:45:50;;;;;;;17.83;11.20;;;1.50;99.90;;;;;;5100347;28;20179;-94
2021/12/06 11:48:18;;;;;;;17.07;10.93;;;1.50;99.90;;;;;;5098192;28;20185;-91
2021/12/06 11:50:47;;;;;;;18.27;12.17;;;1.50;99.90;;;;;;5097767;28;20180;-94
2021/12/06 11:53:17;;;;;;;22.67;11.23;;;1.50;99.90;;;;;;5097548;28;20208;-94
2021/12/06 11:55:52;;;;;;;19.63;12.10;;;1.40;99.90;;;;;;5079571;28;20225;-93
2021/12/06 11:58:29;;;;;;;16.97;11.80;;;1.50;99.90;;;;;;5104771;28;20179;-94
2021/12/06 12:01:17;;;;;;;15.03;11.00;;;1.50;99.90;;;;;;5101037;28;20170;-94
2021/12/06 12:03:50;;;;;;;18.00;11.00;;;1.60;99.90;;;;;;5100869;28;20183;-94
2021/12/06 12:06:23;;;;;;;18.00;11.33;;;1.60;99.90;;;;;;5098310;28;20672;-95
2021/12/06 12:09:00;;;;;;;16.97;11.40;;;1.70;99.90;;;;;;5100830;28;20263;-95
2021/12/06 12:11:26;;;;;;;16.80;11.30;;;1.60;99.90;;;;;;5100834;28;20264;-93
2021/12/06 12:13:53;;;;;;;17.13;11.63;;;1.70;99.90;;;;;;5100838;28;20504;-93
2021/12/06 12:16:33;;;;;;;17.93;11.67;;;1.60;99.90;;;;;;5100895;28;20270;-94
2021/12/06 12:18:59;;;;;;;16.70;11.37;;;1.60;99.90;;;;;;5100806;28;20174;-93
2021/12/06 12:21:24;;;;;;;17.47;11.43;;;1.60;99.90;;;;;;5100706;28;20623;-93
2021/12/06 12:23:51;;;;;;;16.37;11.87;;;1.60;99.90;;;;;;5089819;28;20177;-92
2021/12/06 12:26:22;;;;;;;18.60;11.83;;;1.60;99.90;;;;;;5080310;28;20178;-93
2021/12/06 12:28:51;;;;;;;17.33;12.00;;;1.60;99.90;;;;;;5091376;28;20180;-93
2021/12/06 12:31:18;;;;;;;21.87;12.50;;;1.60;99.90;;;;;;5100342;28;20641;-93
2021/12/06 12:33:46;;;;;;;19.27;13.50;;;1.60;99.90;;;;;;5100312;28;20202;-92
2021/12/06 12:36:20;;;;;;;20.63;13.37;;;1.50;99.90;;;;;;5099277;28;20225;-93
2021/12/06 12:38:49;;;;;;;20.20;14.07;;;1.50;99.90;;;;;;5099768;28;20182;-93
2021/12/06 12:41:18;;;;;;;21.07;14.40;;;1.50;99.90;;;;;;5099170;28;20274;-95
2021/12/06 12:43:52;;;;;;;22.90;14.83;;;1.60;99.90;;;;;;5100186;28;20172;-94
2021/12/06 12:46:30;;;;;;;23.07;16.13;;;1.60;99.90;;;;;;5100609;28;20199;-94
2021/12/06 12:48:59;;;;;;;22.93;15.00;;;1.60;99.90;;;;;;5100544;28;20170;-94
2021/12/06 12:51:30;;;;;;;22.00;14.80;;;1.60;99.90;;;;;;5100559;28;20233;-93
2021/12/06 12:54:12;;;;;;;22.70;14.50;;;1.60;99.90;;;;;;5100209;28;20669;-96
2021/12/06 12:56:48;;;;;;;23.17;14.57;;;1.50;99.90;;;;;;5100873;28;20167;-93
2021/12/06 12:59:25;;;;;;;21.27;14.97;;;1.50;99.90;;;;;;5100592;28;20170;-94
2021/12/06 13:02:29;;;;;;;21.07;14.17;;;1.40;99.90;;;;;;5118603;28;20173;-95
2021/12/06 13:05:00;;;;;;;22.53;13.60;;;1.40;99.90;;;;;;5099919;28;20176;-93